Private Wetterstation Sandau
Wetterdaten: September 2012
Datum Temp. A. Feuchte A. Luftdruck Regen Wind Richtung Taupunkt Windchill
01.09.2012 14,6 C 74 % 1025,5 hPa 0,0 l/m 3,1 km/h (1 Bft) NW 9,8 C 14,6 C
02.09.2012 15,6 C 68 % 1025,3 hPa 0,0 l/m 1,5 km/h (1 Bft) S-SW 9,4 C 15,6 C
03.09.2012 16,0 C 75 % 1024,3 hPa 0,0 l/m 1,3 km/h (1 Bft) N-NO 11,5 C 16,0 C
04.09.2012 18,2 C 68 % 1021,3 hPa 0,0 l/m 2,8 km/h (1 Bft) W-NW 11,8 C 18,2 C
05.09.2012 17,4 C 65 % 1020,8 hPa 0,0 l/m 8,1 km/h (2 Bft) W-NW 10,4 C 17,4 C
06.09.2012 14,9 C 61 % 1024,6 hPa 0,0 l/m 8,8 km/h (2 Bft) W-NW 7,0 C 14,9 C
07.09.2012 16,1 C 77 % 1020,7 hPa 1,6 l/m 6,5 km/h (2 Bft) W-SW 11,9 C 16,1 C
08.09.2012 16,9 C 81 % 1020,0 hPa 5,2 l/m 3,6 km/h (1 Bft) W-NW 13,7 C 16,9 C
09.09.2012 19,1 C 76 % 1017,4 hPa 0,5 l/m 6,8 km/h (2 Bft) SO 14,4 C 19,1 C
10.09.2012 21,3 C 57 % 1014,0 hPa 0,0 l/m 2,4 km/h (1 Bft) S-SO 11,3 C 21,3 C
11.09.2012 17,3 C 81 % 1010,8 hPa 16,6 l/m 6,2 km/h (2 Bft) W-SW 13,8 C 17,3 C
12.09.2012 13,7 C 73 % 1011,8 hPa 0,0 l/m 10,3 km/h (2 Bft) W 8,6 C 13,7 C
13.09.2012 13,0 C 72 % 1016,2 hPa 0,0 l/m 2,9 km/h (1 Bft) W-NW 7,9 C 13,0 C
14.09.2012 14,3 C 78 % 1009,3 hPa 0,0 l/m 25,0 km/h (4 Bft) W-SW 10,2 C 14,3 C
15.09.2012 15,1 C 76 % 1015,2 hPa 0,0 l/m 9,2 km/h (2 Bft) W-SW 10,7 C 15,1 C
16.09.2012 15,9 C 67 % 1015,0 hPa 0,5 l/m 4,3 km/h (1 Bft) W-SW 9,4 C 15,9 C
17.09.2012 15,8 C 73 % 1013,7 hPa 0,0 l/m 5,4 km/h (1 Bft) W-SW 10,8 C 15,8 C
18.09.2012 16,0 C 75 % 1010,4 hPa 0,5 l/m 5,7 km/h (1 Bft) W-SW 11,4 C 16,0 C
19.09.2012 10,6 C 71 % 1017,0 hPa 0,0 l/m 6,2 km/h (2 Bft) W-NW 5,3 C 9,9 C
20.09.2012 11,1 C 66 % 1022,3 hPa 0,0 l/m 5,3 km/h (1 Bft) W-SW 4,6 C 10,7 C
21.09.2012 13,2 C 58 % 1016,1 hPa 0,0 l/m 5,3 km/h (1 Bft) S-SO 4,7 C 12,9 C
22.09.2012 10,3 C 72 % 1013,1 hPa 0,0 l/m 5,0 km/h (1 Bft) W 5,4 C 10,2 C
23.09.2012 10,8 C 67 % 1016,5 hPa 0,0 l/m 1,8 km/h (1 Bft) W 4,4 C 10,8 C
24.09.2012 12,7 C 82 % 1000,9 hPa 6,7 l/m 4,6 km/h (1 Bft) SO 9,6 C 12,6 C
25.09.2012 15,2 C 76 % 1002,5 hPa 1,0 l/m 7,6 km/h (2 Bft) S 10,7 C 15,2 C
26.09.2012 15,4 C 81 % 1002,8 hPa 0,0 l/m 1,6 km/h (1 Bft) SO 12,0 C 15,4 C
27.09.2012 13,7 C 80 % 1006,7 hPa 8,3 l/m 8,2 km/h (2 Bft) W-SW 10,1 C 13,7 C
28.09.2012 13,3 C 74 % 1016,3 hPa 0,0 l/m 8,4 km/h (2 Bft) W-SW 8,6 C 13,3 C
29.09.2012 12,0 C 78 % 1015,3 hPa 0,0 l/m 13,4 km/h (3 Bft) W-SW 8,0 C 12,0 C
30.09.2012 10,8 C 72 % 1021,1 hPa 0,0 l/m 4,2 km/h (1 Bft) W-SW 5,7 C 10,8 C
Min-Datum 23.09.12 10.09.12 24.09.12 9 Tage 01.09.12 - 23.09.12 20.09.12
Min-Zeit 07:21 15:21 20:11 - 00:26 - 07:21 06:41
Minimum 4,8 C 29 % 997,7 hPa - 0,0 km/h (0 Bft) - 2,8 C 3,1 C
Max-Datum 10.09.12 08.09.12 02.09.12 11.09.12 14.09.12 - 11.09.12 10.09.12
Max-Zeit 15:36 05:36 00:51 20:11 19:06 - 14:36 15:36
Maximum 30,4 C 92 % 1027,2 hPa 16,6 l/m 41,0 km/h
W-SW (6 Bft)
- 16,8 C 30,4 C
Durchschnitt 14,7 C 72 % 1015,6 hPa #40,9 l/m 6,2 km/h (2 Bft) W-SW 9,4 C 14,6 C

Durchschnitt Minimum Temp.10,2 C
Durchschnitt Maximum Temp.20,4 C
(c) by David Heller